Time;durP1;ratioP1;P1;durP2;ratioP2;P2;SDS_P1;SDS_P2;PMS_P1;PMS_P2;Temp;Humidity;BMP_temperature;BMP_pressure;BME280_temperature;BME280_humidity;BME280_pressure;Samples;Min_cycle;Max_cycle;Signal;HPM_P1;HPM_P2
2022/12/07 00:01:14;;;;;;;;;56.50;45.00;;;;;5.42;72.26;101538.63;4998773;28;45493;-69
2022/12/07 00:03:41;;;;;;;;;57.25;44.00;;;;;6.45;71.18;101728.63;4999210;28;45257;-71
2022/12/07 00:06:08;;;;;;;;;61.75;46.75;;;;;6.43;71.37;101725.22;4983836;28;45374;-70
2022/12/07 00:08:34;;;;;;;;;54.75;44.25;;;;;6.44;71.96;101711.06;5018540;28;46473;-70
2022/12/07 00:11:04;;;;;;;;;60.00;46.75;;;;;6.23;71.05;101681.53;5018336;28;45317;-70
2022/12/07 00:13:31;;;;;;;;;64.25;49.25;;;;;6.37;71.47;101700.00;5012026;28;45576;-71
2022/12/07 00:16:04;;;;;;;;;55.25;46.25;;;;;6.48;71.12;101713.44;4998786;28;45291;-70
2022/12/07 00:18:30;;;;;;;;;58.25;47.00;;;;;6.06;71.21;101632.41;4998422;28;45382;-70
2022/12/07 00:21:19;;;;;;;;;61.50;49.75;;;;;6.18;70.78;101658.03;4998526;28;45530;-70
2022/12/07 00:23:47;;;;;;;;;58.50;46.50;;;;;6.49;70.70;101716.91;4998264;28;45387;-70
2022/12/07 00:26:13;;;;;;;;;64.75;50.25;;;;;5.72;70.82;101578.97;4997846;28;45238;-70
2022/12/07 00:28:39;;;;;;;;;59.50;45.25;;;;;6.28;70.88;101682.94;4998298;28;45198;-70
2022/12/07 00:31:07;;;;;;;;;58.25;46.00;;;;;6.46;70.61;101699.47;4998688;28;45179;-70
2022/12/07 00:33:34;;;;;;;;;61.00;48.00;;;;;5.97;71.03;101628.50;4998545;28;45544;-70
2022/12/07 00:36:00;;;;;;;;;60.75;47.00;;;;;6.36;70.91;101704.44;4998299;28;45543;-69
2022/12/07 00:38:29;;;;;;;;;64.50;49.75;;;;;6.35;71.30;101710.69;4998138;28;46542;-70
2022/12/07 00:40:57;;;;;;;;;63.25;49.00;;;;;6.24;70.70;101694.66;4998412;28;45523;-69
2022/12/07 00:43:22;;;;;;;;;58.25;46.25;;;;;6.29;70.89;101700.50;4998371;28;45408;-69
2022/12/07 00:45:47;;;;;;;;;61.00;47.25;;;;;6.36;70.64;101715.00;5002641;28;45344;-69
2022/12/07 00:48:13;;;;;;;;;62.25;49.00;;;;;5.87;70.94;101621.22;5015615;28;45258;-70
2022/12/07 00:50:38;;;;;;;;;66.00;51.75;;;;;6.48;71.00;101702.00;4999620;28;61330;-70
2022/12/07 00:53:03;;;;;;;;;61.75;50.00;;;;;6.51;70.17;101707.97;5018073;28;45372;-70
2022/12/07 00:55:33;;;;;;;;;63.00;49.50;;;;;6.45;70.67;101675.78;5018107;28;45313;-70
2022/12/07 00:57:58;;;;;;;;;63.75;46.75;;;;;5.80;69.88;101575.84;5000767;28;45456;-68
2022/12/07 01:00:23;;;;;;;;;59.00;49.25;;;;;6.08;70.11;101612.03;4997433;28;59312;-70
2022/12/07 01:02:49;;;;;;;;;59.25;47.00;;;;;6.61;70.21;101684.47;4997536;28;45456;-70
2022/12/07 01:05:14;;;;;;;;;57.25;47.75;;;;;6.61;70.23;101690.59;4998138;28;45342;-70
2022/12/07 01:07:39;;;;;;;;;62.50;46.75;;;;;6.30;69.99;101620.31;4997503;28;45420;-71
2022/12/07 01:10:06;;;;;;;;;55.67;43.00;;;;;5.84;70.23;101536.97;4997776;28;45233;-67
2022/12/07 01:12:31;;;;;;;;;53.67;44.67;;;;;6.40;69.62;101634.63;4997811;28;45435;-69
2022/12/07 01:14:56;;;;;;;;;55.00;44.33;;;;;6.74;69.72;101677.44;4997686;28;45362;-68
2022/12/07 01:17:22;;;;;;;;;57.00;46.00;;;;;6.64;69.74;101671.91;4997016;28;53912;-70
2022/12/07 01:19:47;;;;;;;;;53.00;43.67;;;;;6.77;69.02;101676.41;4997421;28;45425;-70
2022/12/07 01:22:12;;;;;;;;;52.33;41.67;;;;;6.59;69.03;101651.97;4980017;28;45399;-69
2022/12/07 01:24:37;;;;;;;;;56.00;44.67;;;;;5.98;69.52;101542.25;4998426;28;45490;-68
2022/12/07 01:27:03;;;;;;;;;57.67;45.00;;;;;6.59;68.94;101636.97;5016886;28;58426;-69
2022/12/07 01:29:28;;;;;;;;;56.00;43.67;;;;;6.79;69.44;101675.38;5017203;28;45484;-70
2022/12/07 01:31:54;;;;;;;;;57.67;41.00;;;;;6.33;69.24;101603.44;5017442;28;45514;-74
2022/12/07 01:34:19;;;;;;;;;52.67;42.00;;;;;6.57;69.38;101654.72;5016188;28;45475;-69
2022/12/07 01:36:44;;;;;;;;;52.33;43.67;;;;;6.22;69.47;101590.91;4997218;28;47974;-69
2022/12/07 01:39:09;;;;;;;;;53.33;43.00;;;;;5.71;69.68;101503.41;4996711;28;59060;-69
2022/12/07 01:41:43;;;;;;;;;54.67;41.33;;;;;5.83;69.43;101551.94;4997458;28;45415;-70
2022/12/07 01:44:19;;;;;;;;;54.00;43.67;;;;;6.52;69.64;101666.53;4997968;28;45475;-69
2022/12/07 01:46:57;;;;;;;;;58.00;44.67;;;;;6.53;70.46;101668.22;5014051;28;45575;-69
2022/12/07 01:49:38;;;;;;;;;56.33;43.00;;;;;6.54;70.03;101664.63;5016917;28;45623;-69
2022/12/07 01:52:15;;;;;;;;;56.00;44.67;;;;;6.58;70.38;101669.63;4999079;28;45446;-69
2022/12/07 01:54:43;;;;;;;;;59.00;45.75;;;;;6.51;69.65;101665.69;5017225;28;45500;-75
2022/12/07 01:57:10;;;;;;;;;56.25;45.00;;;;;6.43;70.42;101661.84;5011096;28;47978;-71
2022/12/07 01:59:36;;;;;;;;;52.67;41.00;;;;;5.88;69.80;101565.72;4997072;28;45522;-69
2022/12/07 02:02:04;;;;;;;;;56.25;43.50;;;;;6.50;69.33;101669.28;4997119;28;45353;-69
2022/12/07 02:04:29;;;;;;;;;51.75;41.00;;;;;6.47;69.58;101673.91;4997263;28;45334;-68
2022/12/07 02:06:57;;;;;;;;;54.25;44.00;;;;;6.23;69.89;101637.50;4996527;28;45555;-69
2022/12/07 02:09:22;;;;;;;;;55.25;44.50;;;;;6.33;69.59;101656.25;4996923;28;45433;-69
2022/12/07 02:11:49;;;;;;;;;53.67;42.67;;;;;6.44;69.43;101674.09;4996758;28;45248;-68
2022/12/07 02:14:14;;;;;;;;;60.00;44.67;;;;;4.72;68.83;101392.56;4979555;28;45207;-70
2022/12/07 02:16:48;;;;;;;;;55.00;45.75;;;;;6.30;69.25;101672.28;5014984;28;45703;-69
2022/12/07 02:19:35;;;;;;;;;51.50;41.75;;;;;6.24;69.72;101673.53;5020114;28;45522;-68
2022/12/07 02:22:09;;;;;;;;;52.00;42.33;;;;;6.22;69.22;101678.06;5020029;28;45171;-70
2022/12/07 02:24:52;;;;;;;;;56.67;43.33;;;;;6.19;69.22;101672.94;5019431;28;45254;-70
2022/12/07 02:27:47;;;;;;;;;50.00;38.67;;;;;6.23;69.71;101679.75;5002020;28;47816;-70
2022/12/07 02:30:16;;;;;;;;;56.67;41.67;;;;;6.23;69.37;101677.09;5000475;28;45436;-69
2022/12/07 02:32:48;;;;;;;;;44.33;39.00;;;;;6.24;68.73;101672.69;5000156;28;45366;-70
2022/12/07 02:35:14;;;;;;;;;53.33;43.00;;;;;6.23;69.12;101670.97;4982665;28;45267;-70
2022/12/07 02:37:50;;;;;;;;;57.67;42.67;;;;;6.09;68.69;101650.69;4999952;28;48022;-70
2022/12/07 02:40:31;;;;;;;;;46.33;36.67;;;;;6.18;69.65;101671.25;4999592;28;45591;-70
2022/12/07 02:43:06;;;;;;;;;48.67;39.33;;;;;6.13;69.49;101675.94;5000184;28;45414;-69
2022/12/07 02:45:36;;;;;;;;;51.33;40.67;;;;;5.00;68.79;101487.47;5000216;28;45214;-69
2022/12/07 02:48:03;;;;;;;;;45.00;37.33;;;;;6.07;69.10;101673.69;5000932;28;46236;-69
2022/12/07 02:50:29;;;;;;;;;52.33;42.67;;;;;6.05;69.47;101668.50;4999825;28;45549;-68
2022/12/07 02:52:55;;;;;;;;;46.00;36.33;;;;;5.73;69.33;101614.97;4999761;28;45409;-69
2022/12/07 02:55:28;;;;;;;;;45.00;37.33;;;;;5.79;69.71;101627.78;5000099;28;45407;-69
2022/12/07 02:58:07;;;;;;;;;51.67;40.33;;;;;6.01;69.06;101661.72;4981736;28;46767;-71
2022/12/07 03:00:44;;;;;;;;;46.00;37.00;;;;;5.77;69.58;101632.31;4999749;28;45263;-69
2022/12/07 03:03:13;;;;;;;;;52.33;42.00;;;;;5.66;69.33;101613.66;4999842;28;45607;-69
2022/12/07 03:06:06;;;;;;;;;48.33;38.00;;;;;5.75;69.44;101622.78;5000597;28;45246;-68
2022/12/07 03:08:47;;;;;;;;;50.33;38.00;;;;;5.99;68.85;101660.94;4986490;28;47468;-68
2022/12/07 03:11:37;;;;;;;;;52.67;38.33;;;;;5.99;69.53;101662.72;5001404;28;45481;-70
2022/12/07 03:14:29;;;;;;;;;53.00;38.33;;;;;5.17;68.92;101524.22;5019269;28;45505;-71
2022/12/07 03:17:10;;;;;;;;;47.00;36.00;;;;;5.96;69.92;101665.56;5019053;28;45697;-71
2022/12/07 03:19:38;;;;;;;;;39.67;36.67;;;;;5.94;69.72;101657.72;5017910;28;46936;-69
2022/12/07 03:22:09;;;;;;;;;50.33;40.00;;;;;5.78;69.22;101628.72;5019220;28;45495;-68
2022/12/07 03:24:43;;;;;;;;;53.00;37.33;;;;;5.79;69.41;101640.97;5019337;28;45328;-71
2022/12/07 03:27:19;;;;;;;;;30.00;29.00;;;;;5.65;70.13;101614.59;5018075;28;45333;-69
2022/12/07 03:29:54;;;;;;;;;40.33;35.00;;;;;5.64;69.90;101612.03;4999974;28;48751;-67
2022/12/07 03:32:27;;;;;;;;;39.33;35.00;;;;;5.42;69.46;101575.53;5018001;28;45478;-69
2022/12/07 03:35:00;;;;;;;;;42.00;36.33;;;;;5.80;69.53;101642.69;5019076;28;45530;-68
2022/12/07 03:37:45;;;;;;;;;31.00;26.67;;;;;4.99;70.07;101492.84;5019338;28;45382;-70
2022/12/07 03:40:25;;;;;;;;;43.67;36.67;;;;;5.80;70.15;101626.84;5018327;28;45496;-70
2022/12/07 03:42:53;;;;;;;;;44.00;35.00;;;;;5.54;70.16;101587.97;4997741;28;45459;-69
2022/12/07 03:45:24;;;;;;;;;41.33;35.00;;;;;5.45;69.64;101573.56;4999475;28;45235;-70
2022/12/07 03:48:25;;;;;;;;;50.00;36.67;;;;;5.78;69.90;101623.44;4999333;28;45487;-68
2022/12/07 03:50:59;;;;;;;;;48.00;37.00;;;;;5.73;69.46;101619.41;4996371;28;46253;-68
2022/12/07 03:53:37;;;;;;;;;40.33;32.00;;;;;5.75;69.74;101620.16;5017910;28;45694;-69
2022/12/07 03:56:03;;;;;;;;;40.00;35.00;;;;;5.75;69.58;101644.75;5003587;28;45322;-68
2022/12/07 03:58:30;;;;;;;;;44.00;36.00;;;;;5.73;69.83;101625.53;4999189;28;45517;-69
2022/12/07 04:00:55;;;;;;;;;39.67;35.00;;;;;5.11;69.76;101527.25;4998310;28;46825;-69
2022/12/07 04:03:21;;;;;;;;;44.33;37.33;;;;;5.67;69.84;101632.97;4998698;28;45365;-68
2022/12/07 04:05:46;;;;;;;;;41.00;35.67;;;;;5.58;70.32;101615.88;4981229;28;45413;-72
2022/12/07 04:08:12;;;;;;;;;41.67;34.67;;;;;4.81;70.38;101518.50;4999005;28;45532;-68
2022/12/07 04:10:37;;;;;;;;;38.33;35.00;;;;;5.58;70.10;101639.63;5000425;28;45697;-70
2022/12/07 04:13:03;;;;;;;;;38.33;30.33;;;;;4.51;70.74;101455.25;5018371;28;45254;-69
2022/12/07 04:15:28;;;;;;;;;36.00;30.67;;;;;5.10;70.54;101551.06;5000696;28;45332;-68
2022/12/07 04:17:54;;;;;;;;;33.33;29.67;;;;;5.62;70.52;101627.97;5018714;28;45432;-69
2022/12/07 04:20:20;;;;;;;;;40.00;34.33;;;;;5.64;70.21;101630.50;5018243;28;46601;-72
2022/12/07 04:22:46;;;;;;;;;35.00;30.67;;;;;5.59;70.36;101619.34;4998108;28;45468;-68
2022/12/07 04:25:11;;;;;;;;;30.67;29.00;;;;;5.61;70.49;101618.34;4980779;28;45500;-69
2022/12/07 04:27:37;;;;;;;;;33.67;28.67;;;;;5.63;70.21;101629.66;4981753;28;45437;-68
2022/12/07 04:30:03;;;;;;;;;27.67;26.00;;;;;4.79;70.56;101467.66;4981001;28;48863;-70
2022/12/07 04:32:28;;;;;;;;;30.00;25.33;;;;;5.70;70.10;101630.97;5013751;28;45422;-71
2022/12/07 04:34:53;;;;;;;;;28.00;25.33;;;;;5.31;70.11;101562.97;4998335;28;45656;-68
2022/12/07 04:37:19;;;;;;;;;22.67;20.33;;;;;5.54;70.18;101603.81;4980272;28;45566;-68
2022/12/07 04:39:47;;;;;;;;;31.67;28.00;;;;;5.65;69.93;101619.88;4998146;28;46623;-68
2022/12/07 04:42:15;;;;;;;;;37.00;31.00;;;;;5.47;70.13;101594.56;5005236;28;45819;-70
2022/12/07 04:44:41;;;;;;;;;36.67;30.67;;;;;5.30;70.74;101573.63;4998152;28;45298;-70
2022/12/07 04:47:06;;;;;;;;;29.67;25.67;;;;;5.71;70.24;101622.13;4980762;28;45580;-69
2022/12/07 04:49:32;;;;;;;;;35.67;32.33;;;;;5.52;70.30;101587.22;4996818;28;47659;-68
2022/12/07 04:51:57;;;;;;;;;36.67;30.33;;;;;5.77;70.20;101620.91;5008614;28;45457;-71
2022/12/07 04:54:22;;;;;;;;;36.33;33.67;;;;;5.24;69.84;101526.53;5000051;28;45358;-70
2022/12/07 04:56:48;;;;;;;;;36.33;30.33;;;;;5.82;70.01;101608.31;5018081;28;45274;-69
2022/12/07 04:59:16;;;;;;;;;35.00;29.33;;;;;5.58;69.61;101586.84;5017720;28;46403;-68
2022/12/07 05:01:41;;;;;;;;;40.50;32.00;;;;;5.83;69.56;101614.44;5015409;28;45381;-69
2022/12/07 05:04:07;;;;;;;;;33.33;27.33;;;;;4.95;70.43;101476.38;5017755;28;45292;-69
2022/12/07 05:06:33;;;;;;;;;33.33;29.33;;;;;4.82;69.86;101460.44;5017576;28;45427;-69
2022/12/07 05:08:58;;;;;;;;;33.67;28.33;;;;;5.68;70.08;101601.22;5017489;28;45571;-69
2022/12/07 05:11:38;;;;;;;;;32.67;29.33;;;;;5.63;70.02;101583.97;5016397;28;45206;-68
2022/12/07 05:14:07;;;;;;;;;28.00;24.33;;;;;5.80;69.86;101618.09;5017406;28;45543;-68
2022/12/07 05:16:32;;;;;;;;;37.67;32.00;;;;;5.52;70.07;101566.13;5017727;28;45481;-68
2022/12/07 05:18:58;;;;;;;;;36.67;31.00;;;;;5.75;69.87;101586.69;5017311;28;45582;-70
2022/12/07 05:21:23;;;;;;;;;41.67;34.33;;;;;5.96;69.51;101615.41;5011521;28;45417;-71
2022/12/07 05:23:49;;;;;;;;;35.33;31.67;;;;;6.00;70.10;101612.47;4997364;28;45307;-71
2022/12/07 05:26:14;;;;;;;;;37.00;34.00;;;;;6.05;69.59;101620.13;4979897;28;45366;-68
2022/12/07 05:28:40;;;;;;;;;38.00;32.67;;;;;5.88;69.44;101591.25;4979736;28;45636;-69
2022/12/07 05:31:05;;;;;;;;;36.33;30.00;;;;;5.99;69.47;101625.78;4999543;28;45228;-70
2022/12/07 05:33:30;;;;;;;;;25.67;21.33;;;;;4.51;69.63;101389.41;5016750;28;55585;-71
2022/12/07 05:35:56;;;;;;;;;31.00;27.67;;;;;6.01;69.69;101645.03;5016981;28;45218;-71
2022/12/07 05:38:21;;;;;;;;;30.33;25.67;;;;;5.56;69.34;101541.25;5017118;28;45790;-70
2022/12/07 05:40:47;;;;;;;;;34.33;29.67;;;;;6.13;69.16;101644.28;5002929;28;45293;-69
2022/12/07 05:43:12;;;;;;;;;33.67;27.00;;;;;5.83;69.52;101577.50;4979554;28;45450;-69
2022/12/07 05:45:37;;;;;;;;;25.33;24.67;;;;;6.20;69.24;101623.63;4997571;28;45416;-69
2022/12/07 05:48:03;;;;;;;;;31.00;27.67;;;;;6.07;69.11;101610.34;4996720;28;46849;-69
2022/12/07 05:50:28;;;;;;;;;34.00;29.33;;;;;6.19;68.93;101649.16;4997527;28;45371;-69
2022/12/07 05:52:54;;;;;;;;;36.00;32.33;;;;;5.41;68.50;101471.84;4999150;28;45495;-69
2022/12/07 05:55:19;;;;;;;;;33.33;30.67;;;;;6.32;68.87;101621.06;4998592;28;45440;-70
2022/12/07 05:59:22;;;;;;;;;28.33;25.67;;;;;6.28;68.77;101610.81;4995505;28;48474;-68
2022/12/07 06:00:31;;;;;;;;;35.67;30.67;;;;;6.32;68.57;101607.88;4996489;28;45393;-68
2022/12/07 06:02:56;;;;;;;;;33.33;30.67;;;;;5.35;68.59;101445.00;4979299;28;45377;-70
2022/12/07 06:05:22;;;;;;;;;32.67;30.67;;;;;6.39;68.82;101611.81;4997170;28;45140;-69
2022/12/07 06:07:47;;;;;;;;;37.67;28.67;;;;;6.11;69.10;101566.97;4996987;28;45363;-68
2022/12/07 06:10:13;;;;;;;;;37.00;33.67;;;;;6.32;68.72;101607.03;4986274;28;45589;-69
2022/12/07 06:12:42;;;;;;;;;28.00;28.00;;;;;6.00;68.97;101553.56;5011959;28;45224;-71
2022/12/07 06:15:08;;;;;;;;;32.33;30.00;;;;;6.41;69.24;101627.59;4997953;28;45304;-68
2022/12/07 06:17:33;;;;;;;;;38.00;26.33;;;;;5.02;68.44;101382.84;4996743;28;45634;-69
2022/12/07 06:19:59;;;;;;;;;30.00;27.00;;;;;6.28;68.15;101605.53;4996898;28;45560;-70
2022/12/07 06:22:24;;;;;;;;;35.00;28.00;;;;;6.25;68.34;101580.16;4997225;28;45413;-70
2022/12/07 06:24:49;;;;;;;;;35.33;31.00;;;;;6.36;68.61;101590.88;4996793;28;45595;-70
2022/12/07 06:27:15;;;;;;;;;38.67;33.67;;;;;6.43;68.75;101614.28;4995792;28;54851;-69
2022/12/07 06:29:40;;;;;;;;;28.67;26.00;;;;;6.51;68.60;101633.13;4979106;28;46324;-69
2022/12/07 06:32:06;;;;;;;;;35.00;27.33;;;;;6.29;69.06;101581.66;4979262;28;45544;-68
2022/12/07 06:34:34;;;;;;;;;36.00;32.00;;;;;6.24;68.53;101569.69;4997043;28;45641;-71
2022/12/07 06:37:00;;;;;;;;;35.33;31.00;;;;;6.54;68.74;101623.22;4978712;28;47988;-71
2022/12/07 06:39:28;;;;;;;;;41.67;32.33;;;;;6.51;68.55;101618.13;4996947;28;45531;-71
2022/12/07 06:41:53;;;;;;;;;38.33;32.00;;;;;6.52;68.33;101614.53;4999443;28;45529;-71
2022/12/07 06:44:19;;;;;;;;;34.67;30.00;;;;;6.07;68.53;101539.91;5012002;28;45483;-70
2022/12/07 06:46:45;;;;;;;;;30.67;26.33;;;;;6.51;68.38;101628.69;4996827;28;48473;-69
2022/12/07 06:49:10;;;;;;;;;36.67;33.33;;;;;6.51;68.46;101641.06;4978650;28;45677;-70
2022/12/07 06:51:36;;;;;;;;;31.33;24.67;;;;;5.94;68.56;101532.84;4996355;28;45302;-71
2022/12/07 06:54:03;;;;;;;;;35.67;32.00;;;;;6.56;68.44;101633.69;4996404;28;45646;-70
2022/12/07 06:56:28;;;;;;;;;36.67;32.00;;;;;6.59;68.24;101636.13;4996263;28;46316;-72
2022/12/07 06:58:54;;;;;;;;;32.00;28.00;;;;;6.55;68.49;101619.63;4996155;28;45496;-71
2022/12/07 07:01:19;;;;;;;;;39.67;33.00;;;;;6.60;68.68;101622.81;4998178;28;45626;-69
2022/12/07 07:03:45;;;;;;;;;40.00;35.67;;;;;6.19;68.21;101548.84;5000053;28;45548;-68
2022/12/07 07:06:12;;;;;;;;;36.33;31.00;;;;;6.32;68.33;101570.06;5002724;28;46647;-69
2022/12/07 07:08:38;;;;;;;;;35.67;33.00;;;;;6.63;69.13;101619.16;4999225;28;45342;-70
2022/12/07 07:11:04;;;;;;;;;30.67;25.33;;;;;6.66;68.31;101621.59;4982113;28;45358;-70
2022/12/07 07:13:29;;;;;;;;;34.33;32.67;;;;;6.70;68.25;101623.09;4982741;28;45556;-71
2022/12/07 07:15:55;;;;;;;;;41.67;36.00;;;;;6.27;68.50;101543.09;4992650;28;48624;-70
2022/12/07 07:18:21;;;;;;;;;35.67;29.67;;;;;6.63;68.28;101611.25;4997501;28;46196;-70
2022/12/07 07:20:46;;;;;;;;;34.00;32.67;;;;;6.74;68.31;101627.25;4999678;28;45468;-69
2022/12/07 07:23:12;;;;;;;;;26.00;25.00;;;;;6.77;67.73;101627.03;4999573;28;45464;-72
2022/12/07 07:25:37;;;;;;;;;37.33;34.00;;;;;6.44;68.09;101568.44;4999492;28;45745;-71
2022/12/07 07:28:04;;;;;;;;;34.00;30.33;;;;;6.65;68.16;101596.97;5000054;28;45397;-72
2022/12/07 07:30:29;;;;;;;;;33.33;25.33;;;;;6.82;68.54;101630.25;5000081;28;45373;-71
2022/12/07 07:32:59;;;;;;;;;23.33;22.00;;;;;6.84;68.91;101625.72;4981724;28;45212;-69
2022/12/07 07:35:25;;;;;;;;;35.00;29.33;;;;;6.84;68.11;101624.88;4981181;28;48340;-71
2022/12/07 07:37:51;;;;;;;;;30.67;29.67;;;;;6.85;68.00;101642.44;4999321;28;45504;-71
2022/12/07 07:40:16;;;;;;;;;32.00;27.67;;;;;6.63;67.82;101592.75;4999231;28;45321;-70
2022/12/07 07:42:42;;;;;;;;;40.00;32.00;;;;;6.63;67.69;101616.53;4999171;28;45612;-70
2022/12/07 07:45:10;;;;;;;;;38.33;33.33;;;;;6.88;68.09;101627.22;4998972;28;45871;-69
2022/12/07 07:47:36;;;;;;;;;30.00;28.67;;;;;6.30;67.98;101525.25;4998834;28;45204;-71
2022/12/07 07:50:01;;;;;;;;;39.00;34.67;;;;;6.52;68.69;101566.16;4997621;28;45457;-72
2022/12/07 07:52:26;;;;;;;;;42.33;33.00;;;;;6.60;68.24;101577.91;5005953;28;45476;-73
2022/12/07 07:54:52;;;;;;;;;34.67;30.67;;;;;6.97;68.12;101623.97;4997834;28;47984;-72
2022/12/07 07:57:18;;;;;;;;;29.67;27.67;;;;;6.76;67.26;101591.00;5018482;28;45603;-71
2022/12/07 07:59:43;;;;;;;;;29.67;28.00;;;;;6.83;67.83;101602.88;5015774;28;45463;-73
2022/12/07 08:02:17;;;;;;;;;39.67;32.67;;;;;7.00;67.94;101631.69;5018809;28;45183;-71
2022/12/07 08:04:42;;;;;;;;;45.67;35.67;;;;;7.05;67.24;101635.88;4991440;28;46082;-71
2022/12/07 08:07:10;;;;;;;;;42.33;36.67;;;;;6.96;67.47;101624.06;5011691;28;45266;-71
2022/12/07 08:09:36;;;;;;;;;43.00;38.67;;;;;7.10;67.25;101626.66;5000619;28;45274;-75
2022/12/07 08:12:01;;;;;;;;;26.00;25.67;;;;;7.14;67.64;101637.91;5010784;28;45573;-70
2022/12/07 08:14:28;;;;;;;;;34.67;29.33;;;;;6.75;67.60;101562.88;4995651;28;47447;-71
2022/12/07 08:16:54;;;;;;;;;35.33;31.33;;;;;7.20;67.86;101638.34;5008479;28;45451;-70
2022/12/07 08:19:19;;;;;;;;;36.00;34.00;;;;;7.08;67.37;101612.72;4975315;28;45350;-71
2022/12/07 08:21:44;;;;;;;;;34.67;32.67;;;;;6.83;67.11;101576.47;4978140;28;45350;-69
2022/12/07 08:24:10;;;;;;;;;35.00;31.33;;;;;7.05;67.32;101610.28;4991821;28;47542;-71
2022/12/07 08:26:35;;;;;;;;;38.00;33.33;;;;;7.27;66.64;101647.56;4977774;28;45430;-71
2022/12/07 08:29:01;;;;;;;;;37.67;34.67;;;;;7.26;66.28;101663.56;4980908;28;46072;-74
2022/12/07 08:34:47;;;;;;;;;34.00;31.67;;;;;7.07;67.14;101621.59;4985076;28;45704;-70
2022/12/07 08:37:13;;;;;;;;;34.67;31.67;;;;;6.95;67.19;101602.06;4978718;28;45311;-71
2022/12/07 08:39:38;;;;;;;;;37.67;33.00;;;;;7.31;66.39;101650.88;4977658;28;45353;-75
2022/12/07 08:42:06;;;;;;;;;32.33;30.33;;;;;7.26;66.52;101640.59;4996209;28;45493;-72
2022/12/07 08:44:32;;;;;;;;;34.67;29.67;;;;;6.74;65.78;101566.47;5009714;28;62386;-74
2022/12/07 08:47:02;;;;;;;;;26.33;22.33;;;;;7.17;66.49;101632.41;4996734;28;45404;-72
2022/12/07 08:49:36;;;;;;;;;36.33;31.67;;;;;7.28;66.53;101659.00;5013348;28;45565;-71
2022/12/07 08:52:04;;;;;;;;;28.67;27.67;;;;;7.30;66.73;101654.47;4996615;28;45645;-71
2022/12/07 08:54:30;;;;;;;;;39.33;31.00;;;;;7.00;66.01;101615.84;4997168;28;48818;-72
2022/12/07 08:56:56;;;;;;;;;31.33;30.67;;;;;7.06;65.80;101603.19;4997916;28;45502;-74
2022/12/07 08:59:22;;;;;;;;;31.67;30.33;;;;;7.27;65.97;101628.22;4999464;28;45270;-76
2022/12/07 09:01:48;;;;;;;;;33.00;30.33;;;;;7.47;66.03;101654.19;5014032;28;45360;-74
2022/12/07 09:04:13;;;;;;;;;31.00;30.00;;;;;7.54;66.16;101647.53;4999804;28;45635;-73
2022/12/07 09:06:39;;;;;;;;;30.33;28.33;;;;;7.39;65.99;101611.50;5014490;28;45459;-74
2022/12/07 09:09:06;;;;;;;;;37.33;34.33;;;;;7.66;65.35;101645.03;4998439;28;45290;-74
2022/12/07 09:11:31;;;;;;;;;39.33;35.33;;;;;7.54;65.14;101636.97;5013463;28;45514;-73
2022/12/07 09:13:57;;;;;;;;;34.00;32.00;;;;;7.60;64.59;101656.84;5008033;28;45670;-75
2022/12/07 09:16:26;;;;;;;;;39.67;35.00;;;;;7.53;65.43;101645.84;5019229;28;45270;-75
2022/12/07 09:18:51;;;;;;;;;39.00;33.33;;;;;7.49;65.03;101638.22;5021685;28;45415;-75
2022/12/07 09:21:16;;;;;;;;;34.00;31.00;;;;;6.72;64.70;101499.66;5018581;28;45302;-75
2022/12/07 09:23:42;;;;;;;;;37.67;34.33;;;;;7.38;65.08;101620.41;5018013;28;45712;-77
2022/12/07 09:26:08;;;;;;;;;35.33;31.67;;;;;7.69;65.14;101655.41;5018040;28;45582;-75
2022/12/07 09:28:33;;;;;;;;;36.00;31.33;;;;;7.30;65.02;101586.53;5016370;28;45746;-75
2022/12/07 09:30:59;;;;;;;;;38.00;33.33;;;;;7.53;65.26;101623.84;5018038;28;45464;-76
2022/12/07 09:33:27;;;;;;;;;31.33;30.67;;;;;6.74;65.21;101475.75;5016532;28;48456;-73
2022/12/07 09:35:53;;;;;;;;;39.00;31.00;;;;;7.92;64.65;101657.34;5017689;28;45258;-76
2022/12/07 09:38:20;;;;;;;;;38.00;31.50;;;;;7.98;64.71;101656.91;5016216;28;45539;-75
2022/12/07 09:40:46;;;;;;;;;31.67;30.67;;;;;8.02;64.32;101647.84;5017984;28;45587;-75
2022/12/07 09:43:39;;;;;;;;;39.33;33.00;;;;;8.06;64.17;101644.03;5019348;28;46283;-77
2022/12/07 09:46:05;;;;;;;;;37.00;32.33;;;;;7.52;64.43;101540.13;4997662;28;45530;-77
2022/12/07 09:48:37;;;;;;;;;31.33;28.00;;;;;8.20;64.35;101635.94;5015923;28;45385;-77
2022/12/07 09:51:20;;;;;;;;;39.67;35.00;;;;;7.40;64.32;101503.91;4998456;28;45207;-75
2022/12/07 09:53:47;;;;;;;;;31.33;28.33;;;;;8.20;63.85;101630.66;5000159;28;46180;-78
2022/12/07 09:56:14;;;;;;;;;47.67;40.33;;;;;8.31;63.78;101653.75;5014181;28;45527;-77
2022/12/07 09:58:40;;;;;;;;;35.33;29.00;;;;;8.22;63.84;101615.53;5016377;28;45360;-73
2022/12/07 10:01:12;;;;;;;;;32.33;29.00;;;;;8.52;63.79;101633.72;5015627;28;45479;-73
2022/12/07 10:03:39;;;;;;;;;31.33;28.00;;;;;8.03;63.66;101537.47;5016150;28;45511;-72
2022/12/07 10:06:07;;;;;;;;;31.33;28.33;;;;;8.80;63.41;101629.94;5015400;28;45286;-72
2022/12/07 10:08:33;;;;;;;;;33.67;33.00;;;;;7.88;63.15;101457.31;5015073;28;45559;-72
2022/12/07 10:11:03;;;;;;;;;34.33;29.33;;;;;8.93;62.46;101629.06;5016376;28;45496;-72
2022/12/07 10:13:38;;;;;;;;;31.67;29.00;;;;;8.91;63.11;101609.75;5017167;28;45688;-70
2022/12/07 10:16:04;;;;;;;;;35.67;32.33;;;;;9.00;63.29;101630.28;5017377;28;45386;-71
2022/12/07 10:18:35;;;;;;;;;29.67;26.00;;;;;8.97;63.21;101626.06;5016042;28;45210;-73
2022/12/07 10:21:07;;;;;;;;;30.00;29.00;;;;;8.98;63.16;101633.06;5017336;28;45531;-72
2022/12/07 10:23:33;;;;;;;;;30.33;28.33;;;;;8.54;63.24;101562.91;5015952;28;46420;-71
2022/12/07 10:25:58;;;;;;;;;30.00;26.67;;;;;9.06;63.06;101629.84;5015607;28;45547;-72
2022/12/07 10:28:35;;;;;;;;;26.33;24.33;;;;;9.12;62.93;101621.44;5017079;28;45532;-71
2022/12/07 10:31:14;;;;;;;;;34.33;31.00;;;;;9.22;62.61;101619.81;5013327;28;45494;-71
2022/12/07 10:33:58;;;;;;;;;28.67;26.67;;;;;8.88;62.21;101541.88;5014895;28;45769;-73
2022/12/07 10:36:39;;;;;;;;;32.67;28.67;;;;;9.36;62.33;101606.34;5017052;28;45301;-71
2022/12/07 10:39:14;;;;;;;;;33.33;29.33;;;;;9.32;61.77;101583.66;5019684;28;45534;-71
2022/12/07 10:41:54;;;;;;;;;32.00;30.33;;;;;9.56;61.75;101611.97;5018402;28;45547;-71
2022/12/07 10:44:28;;;;;;;;;38.67;32.33;;;;;9.20;61.25;101547.41;5018284;28;46445;-72
2022/12/07 10:47:47;;;;;;;;;30.00;27.67;;;;;9.62;61.52;101585.81;5020051;28;45368;-72
2022/12/07 10:50:21;;;;;;;;;36.33;33.33;;;;;9.66;61.06;101586.41;4923209;28;45410;-74
2022/12/07 10:52:56;;;;;;;;;32.33;31.33;;;;;9.68;61.30;101576.53;4990222;28;45645;-71
2022/12/07 10:55:46;;;;;;;;;31.67;31.33;;;;;9.69;61.55;101562.28;5018684;28;49936;-71
2022/12/07 10:58:18;;;;;;;;;31.67;27.67;;;;;9.78;61.19;101558.91;5001393;28;45384;-71
2022/12/07 11:01:08;;;;;;;;;29.67;28.33;;;;;9.60;61.19;101525.81;5019503;28;45575;-73
2022/12/07 11:03:40;;;;;;;;;28.67;25.67;;;;;9.84;60.62;101558.44;4999717;28;45574;-72
2022/12/07 11:06:30;;;;;;;;;28.00;24.33;;;;;9.87;60.63;101555.53;5021283;28;46582;-70
2022/12/07 11:09:17;;;;;;;;;24.67;23.00;;;;;9.80;60.10;101546.34;5001897;28;45339;-69
2022/12/07 11:11:57;;;;;;;;;24.33;23.00;;;;;9.63;60.62;101528.25;5018641;28;45530;-72
2022/12/07 11:14:51;;;;;;;;;26.67;24.00;;;;;9.22;60.28;101476.53;5001558;28;45352;-71
2022/12/07 11:17:32;;;;;;;;;35.00;31.00;;;;;9.42;60.81;101523.63;5011563;28;45534;-71
2022/12/07 11:20:00;;;;;;;;;32.33;28.33;;;;;9.48;60.83;101546.19;4996807;28;46073;-77
2022/12/07 11:22:39;;;;;;;;;33.33;30.67;;;;;9.46;61.68;101540.16;4998949;28;45204;-71
2022/12/07 11:25:27;;;;;;;;;29.67;27.00;;;;;9.41;61.20;101532.56;4999745;28;45410;-73
2022/12/07 11:28:10;;;;;;;;;30.33;29.33;;;;;9.34;61.59;101522.50;5001318;28;45798;-72
2022/12/07 11:30:45;;;;;;;;;39.33;31.33;;;;;9.35;61.78;101525.03;4999013;28;45464;-71